DLA9VL EDDM-LJLJ
Flight info
| Callsign | DLA9VL |
|---|---|
| Flight time | 0h 43m |
| Altitude | 25000 |
| Route | ROTAX3S/26L ROTAX L603 LATLO DCT OBEDI DCT LUMUS LUMUS4L |
| Aircraft | E195/M-SDE3GILORVW/S |
Departure
| Time | 2026-05-07 17:34 |
|---|---|
| Airport | Munich Airport (EDDM) |
Arrival
| Time | 2026-05-07 18:17 |
|---|---|
| Airport | Ljubljana Jože Pučnik Airport (LJLJ) |
| Time | Latitude | Longitude | Altitude | Speed | Heading |
|---|---|---|---|---|---|
| 2026-05-07 17:08 | 48.35036 | 11.80044 | 1484 ft | 0 kts | 353° |
| 2026-05-07 17:28 | 48.35038 | 11.80044 | 1484 ft | 1 kts | 353° |
| 2026-05-07 17:29 | 48.35059 | 11.80040 | 1475 ft | 5 kts | 353° |
| 2026-05-07 17:29 | 48.35088 | 11.80014 | 1484 ft | 5 kts | 307° |
| 2026-05-07 17:29 | 48.35091 | 11.79956 | 1484 ft | 7 kts | 265° |
| 2026-05-07 17:29 | 48.35084 | 11.79867 | 1484 ft | 10 kts | 263° |
| 2026-05-07 17:30 | 48.35075 | 11.79743 | 1477 ft | 13 kts | 261° |
| 2026-05-07 17:30 | 48.35013 | 11.79668 | 1484 ft | 13 kts | 179° |
| 2026-05-07 17:30 | 48.34923 | 11.79682 | 1475 ft | 11 kts | 173° |
| 2026-05-07 17:30 | 48.34893 | 11.79687 | 1484 ft | 0 kts | 173° |
| 2026-05-07 17:31 | 48.34891 | 11.79687 | 1479 ft | 1 kts | 173° |
| 2026-05-07 17:31 | 48.34868 | 11.79692 | 1474 ft | 6 kts | 173° |
| 2026-05-07 17:32 | 48.34803 | 11.79703 | 1477 ft | 12 kts | 173° |
| 2026-05-07 17:32 | 48.34708 | 11.79695 | 1481 ft | 14 kts | 209° |
| 2026-05-07 17:32 | 48.34643 | 11.79579 | 1481 ft | 15 kts | 233° |
| 2026-05-07 17:32 | 48.34599 | 11.79492 | 1471 ft | 16 kts | 233° |
| 2026-05-07 17:33 | 48.34500 | 11.79293 | 1479 ft | 19 kts | 234° |
| 2026-05-07 17:33 | 48.34418 | 11.79118 | 1484 ft | 22 kts | 237° |
| 2026-05-07 17:33 | 48.34361 | 11.78898 | 1477 ft | 23 kts | 260° |
| 2026-05-07 17:33 | 48.34325 | 11.78435 | 1484 ft | 77 kts | 264° |
| 2026-05-07 17:34 | 48.34240 | 11.77314 | 1484 ft | 138 kts | 263° |
| 2026-05-07 17:34 | 48.34115 | 11.75635 | 1625 ft | 178 kts | 262° |
| 2026-05-07 17:34 | 48.33884 | 11.73735 | 2257 ft | 181 kts | 258° |
| 2026-05-07 17:34 | 48.33626 | 11.71933 | 2853 ft | 178 kts | 263° |
| 2026-05-07 17:35 | 48.33617 | 11.70069 | 3473 ft | 180 kts | 279° |
| 2026-05-07 17:35 | 48.33944 | 11.68259 | 4143 ft | 178 kts | 292° |
| 2026-05-07 17:35 | 48.34151 | 11.66462 | 4733 ft | 172 kts | 259° |
| 2026-05-07 17:35 | 48.33563 | 11.64978 | 4983 ft | 170 kts | 226° |
| 2026-05-07 17:36 | 48.32631 | 11.64003 | 5549 ft | 165 kts | 194° |
| 2026-05-07 17:36 | 48.31513 | 11.64134 | 6051 ft | 159 kts | 167° |
| 2026-05-07 17:36 | 48.30450 | 11.64440 | 6511 ft | 154 kts | 171° |
| 2026-05-07 17:36 | 48.29406 | 11.64753 | 6859 ft | 153 kts | 171° |
| 2026-05-07 17:37 | 48.28346 | 11.65064 | 7053 ft | 163 kts | 171° |
| 2026-05-07 17:37 | 48.27218 | 11.65347 | 7089 ft | 170 kts | 174° |
| 2026-05-07 17:37 | 48.25975 | 11.65599 | 7219 ft | 188 kts | 174° |
| 2026-05-07 17:37 | 48.24638 | 11.65864 | 7399 ft | 199 kts | 174° |
| 2026-05-07 17:38 | 48.23232 | 11.66144 | 7500 ft | 207 kts | 174° |
| 2026-05-07 17:38 | 48.21787 | 11.66426 | 7574 ft | 211 kts | 174° |
| 2026-05-07 17:38 | 48.20315 | 11.66711 | 7488 ft | 217 kts | 174° |
| 2026-05-07 17:38 | 48.18781 | 11.66992 | 6899 ft | 228 kts | 176° |
| 2026-05-07 17:39 | 48.17225 | 11.67368 | 6601 ft | 221 kts | 158° |
| 2026-05-07 17:39 | 48.15951 | 11.68456 | 6544 ft | 204 kts | 139° |
| 2026-05-07 17:39 | 48.14958 | 11.69840 | 6464 ft | 187 kts | 133° |
| 2026-05-07 17:39 | 48.14358 | 11.71535 | 6142 ft | 186 kts | 107° |
| 2026-05-07 17:40 | 48.13956 | 11.73366 | 6233 ft | 190 kts | 109° |
| 2026-05-07 17:40 | 48.13502 | 11.75323 | 6486 ft | 207 kts | 109° |
| 2026-05-07 17:40 | 48.13017 | 11.77406 | 6896 ft | 216 kts | 109° |
| 2026-05-07 17:40 | 48.12526 | 11.79585 | 7266 ft | 227 kts | 108° |
| 2026-05-07 17:41 | 48.12052 | 11.81897 | 7651 ft | 238 kts | 107° |
| 2026-05-07 17:41 | 48.11548 | 11.84290 | 8045 ft | 242 kts | 108° |
| 2026-05-07 17:41 | 48.11022 | 11.86698 | 8625 ft | 244 kts | 108° |
| 2026-05-07 17:41 | 48.10498 | 11.89123 | 9174 ft | 247 kts | 108° |
| 2026-05-07 17:42 | 48.09969 | 11.91578 | 9726 ft | 249 kts | 109° |
| 2026-05-07 17:42 | 48.09398 | 11.94030 | 10273 ft | 250 kts | 110° |
| 2026-05-07 17:42 | 48.08812 | 11.96493 | 10826 ft | 252 kts | 110° |
| 2026-05-07 17:42 | 48.08192 | 11.98941 | 11375 ft | 252 kts | 112° |
| 2026-05-07 17:43 | 48.07549 | 12.01391 | 11926 ft | 253 kts | 112° |
| 2026-05-07 17:43 | 48.06911 | 12.03849 | 12476 ft | 254 kts | 112° |
| 2026-05-07 17:43 | 48.06271 | 12.06321 | 13009 ft | 258 kts | 112° |
| 2026-05-07 17:43 | 48.05614 | 12.08868 | 13541 ft | 267 kts | 112° |
| 2026-05-07 17:44 | 48.04937 | 12.11494 | 14090 ft | 275 kts | 112° |
| 2026-05-07 17:44 | 48.04246 | 12.14167 | 14623 ft | 285 kts | 112° |
| 2026-05-07 17:44 | 48.03507 | 12.17020 | 15166 ft | 295 kts | 112° |
| 2026-05-07 17:44 | 48.02765 | 12.19892 | 15697 ft | 305 kts | 112° |
| 2026-05-07 17:45 | 48.01985 | 12.22905 | 16229 ft | 315 kts | 112° |
| 2026-05-07 17:45 | 48.01185 | 12.25999 | 16759 ft | 318 kts | 112° |
| 2026-05-07 17:45 | 48.00420 | 12.28971 | 17275 ft | 304 kts | 112° |
| 2026-05-07 17:45 | 47.99653 | 12.31959 | 17800 ft | 312 kts | 112° |
| 2026-05-07 17:46 | 47.98863 | 12.35027 | 18328 ft | 320 kts | 112° |
| 2026-05-07 17:46 | 47.97823 | 12.37973 | 18850 ft | 323 kts | 133° |
| 2026-05-07 17:46 | 47.96034 | 12.39959 | 19375 ft | 323 kts | 153° |
| 2026-05-07 17:46 | 47.94282 | 12.42092 | 19905 ft | 332 kts | 131° |
| 2026-05-07 17:47 | 47.92839 | 12.44813 | 20441 ft | 336 kts | 132° |
| 2026-05-07 17:47 | 47.91279 | 12.47448 | 20971 ft | 341 kts | 134° |
| 2026-05-07 17:47 | 47.89687 | 12.50092 | 21500 ft | 345 kts | 133° |
| 2026-05-07 17:47 | 47.88118 | 12.52692 | 22539 ft | 325 kts | 134° |
| 2026-05-07 17:48 | 47.86644 | 12.55140 | 23484 ft | 318 kts | 134° |
| 2026-05-07 17:48 | 47.85120 | 12.57661 | 23639 ft | 332 kts | 134° |
| 2026-05-07 17:48 | 47.84103 | 12.59341 | 23895 ft | 337 kts | 134° |
| 2026-05-07 17:48 | 47.82498 | 12.61990 | 24275 ft | 345 kts | 134° |
| 2026-05-07 17:49 | 47.80858 | 12.64648 | 24609 ft | 353 kts | 135° |
| 2026-05-07 17:49 | 47.79165 | 12.67353 | 24933 ft | 362 kts | 134° |
| 2026-05-07 17:49 | 47.77415 | 12.70141 | 25007 ft | 375 kts | 141° |
| 2026-05-07 17:49 | 47.75285 | 12.72430 | 25028 ft | 383 kts | 147° |
| 2026-05-07 17:50 | 47.73126 | 12.74910 | 25073 ft | 401 kts | 142° |
| 2026-05-07 17:50 | 47.70969 | 12.77662 | 25116 ft | 414 kts | 140° |
| 2026-05-07 17:50 | 47.68810 | 12.80561 | 25130 ft | 422 kts | 139° |
| 2026-05-07 17:50 | 47.66653 | 12.83551 | 25026 ft | 426 kts | 138° |
| 2026-05-07 17:51 | 47.64513 | 12.86598 | 25005 ft | 427 kts | 138° |
| 2026-05-07 17:51 | 47.62372 | 12.89678 | 24997 ft | 428 kts | 137° |
| 2026-05-07 17:51 | 47.60238 | 12.92774 | 25001 ft | 429 kts | 137° |
| 2026-05-07 17:51 | 47.58108 | 12.95881 | 24993 ft | 430 kts | 137° |
| 2026-05-07 17:52 | 47.55981 | 12.98992 | 24993 ft | 430 kts | 137° |
| 2026-05-07 17:52 | 47.53856 | 13.02105 | 24984 ft | 430 kts | 137° |
| 2026-05-07 17:52 | 47.51731 | 13.05221 | 24981 ft | 430 kts | 137° |
| 2026-05-07 17:52 | 47.49607 | 13.08341 | 24983 ft | 430 kts | 137° |
| 2026-05-07 17:53 | 47.47482 | 13.11459 | 25001 ft | 430 kts | 137° |
| 2026-05-07 17:53 | 47.45356 | 13.14571 | 24981 ft | 430 kts | 137° |
| 2026-05-07 17:53 | 47.43260 | 13.17645 | 24971 ft | 430 kts | 137° |
| 2026-05-07 17:53 | 47.41136 | 13.20755 | 24971 ft | 430 kts | 137° |
| 2026-05-07 17:54 | 47.39010 | 13.23856 | 24973 ft | 430 kts | 137° |
| 2026-05-07 17:54 | 47.36883 | 13.26963 | 24988 ft | 430 kts | 137° |
| 2026-05-07 17:54 | 47.34756 | 13.30064 | 24984 ft | 430 kts | 137° |
| 2026-05-07 17:54 | 47.32595 | 13.33110 | 24992 ft | 429 kts | 141° |
| 2026-05-07 17:55 | 47.30274 | 13.35857 | 25003 ft | 428 kts | 145° |
| 2026-05-07 17:55 | 47.27911 | 13.38519 | 24995 ft | 428 kts | 144° |
| 2026-05-07 17:55 | 47.25556 | 13.41199 | 24985 ft | 428 kts | 144° |
| 2026-05-07 17:55 | 47.23200 | 13.43875 | 24982 ft | 428 kts | 144° |
| 2026-05-07 17:56 | 47.20842 | 13.46558 | 24973 ft | 428 kts | 144° |
| 2026-05-07 17:56 | 47.18488 | 13.49235 | 24967 ft | 428 kts | 144° |
| 2026-05-07 17:56 | 47.16125 | 13.51910 | 24966 ft | 428 kts | 144° |
| 2026-05-07 17:56 | 47.13767 | 13.54585 | 24979 ft | 428 kts | 144° |
| 2026-05-07 17:57 | 47.11404 | 13.57256 | 24979 ft | 428 kts | 145° |
| 2026-05-07 17:57 | 47.09846 | 13.59017 | 24974 ft | 427 kts | 145° |
| 2026-05-07 17:57 | 47.06691 | 13.62582 | 24996 ft | 427 kts | 145° |
| 2026-05-07 17:57 | 47.04330 | 13.65252 | 24987 ft | 429 kts | 145° |
| 2026-05-07 17:58 | 47.01970 | 13.67912 | 25003 ft | 429 kts | 145° |
| 2026-05-07 17:58 | 46.99606 | 13.70577 | 25007 ft | 429 kts | 145° |
| 2026-05-07 17:58 | 46.97237 | 13.73243 | 25008 ft | 430 kts | 145° |
| 2026-05-07 17:58 | 46.94868 | 13.75906 | 25010 ft | 429 kts | 145° |
| 2026-05-07 17:59 | 46.92544 | 13.78517 | 24999 ft | 410 kts | 145° |
| 2026-05-07 17:59 | 46.90341 | 13.80991 | 24970 ft | 389 kts | 146° |
| 2026-05-07 17:59 | 46.88270 | 13.83311 | 24920 ft | 371 kts | 146° |
| 2026-05-07 17:59 | 46.86275 | 13.85547 | 24929 ft | 351 kts | 146° |
| 2026-05-07 18:00 | 46.84387 | 13.87662 | 24956 ft | 332 kts | 146° |
| 2026-05-07 18:00 | 46.82598 | 13.89662 | 24979 ft | 316 kts | 147° |
| 2026-05-07 18:00 | 46.80881 | 13.91582 | 25019 ft | 307 kts | 147° |
| 2026-05-07 18:00 | 46.79172 | 13.93479 | 24577 ft | 316 kts | 147° |
| 2026-05-07 18:01 | 46.77357 | 13.95484 | 23481 ft | 337 kts | 147° |
| 2026-05-07 18:01 | 46.75443 | 13.97600 | 22399 ft | 354 kts | 146° |
| 2026-05-07 18:01 | 46.73444 | 13.99817 | 21310 ft | 368 kts | 146° |
| 2026-05-07 18:01 | 46.71367 | 14.02116 | 20142 ft | 381 kts | 146° |
| 2026-05-07 18:02 | 46.67141 | 14.06802 | 18699 ft | 378 kts | 145° |
| 2026-05-07 18:02 | 46.65076 | 14.09089 | 18211 ft | 369 kts | 145° |
| 2026-05-07 18:02 | 46.63070 | 14.11309 | 17685 ft | 355 kts | 145° |
| 2026-05-07 18:03 | 46.61143 | 14.13439 | 17215 ft | 341 kts | 145° |
| 2026-05-07 18:03 | 46.59279 | 14.15467 | 16795 ft | 327 kts | 149° |
| 2026-05-07 18:03 | 46.57352 | 14.17082 | 16396 ft | 313 kts | 155° |
| 2026-05-07 18:03 | 46.55445 | 14.18528 | 15939 ft | 305 kts | 155° |
| 2026-05-07 18:04 | 46.53603 | 14.19942 | 15572 ft | 294 kts | 155° |
| 2026-05-07 18:04 | 46.51815 | 14.21310 | 15161 ft | 287 kts | 155° |
| 2026-05-07 18:04 | 46.50078 | 14.22644 | 14794 ft | 278 kts | 155° |
| 2026-05-07 18:04 | 46.48392 | 14.23934 | 14472 ft | 271 kts | 155° |
| 2026-05-07 18:05 | 46.46728 | 14.25211 | 14080 ft | 270 kts | 155° |
| 2026-05-07 18:05 | 46.45075 | 14.26481 | 13737 ft | 269 kts | 155° |
| 2026-05-07 18:05 | 46.43421 | 14.27743 | 13401 ft | 267 kts | 154° |
| 2026-05-07 18:05 | 46.41781 | 14.29002 | 13034 ft | 267 kts | 154° |
| 2026-05-07 18:06 | 46.40143 | 14.30272 | 12688 ft | 266 kts | 154° |
| 2026-05-07 18:06 | 46.38535 | 14.31517 | 12346 ft | 266 kts | 154° |
| 2026-05-07 18:06 | 46.36901 | 14.32778 | 11963 ft | 266 kts | 154° |
| 2026-05-07 18:06 | 46.35266 | 14.34038 | 11625 ft | 265 kts | 154° |
| 2026-05-07 18:07 | 46.33640 | 14.35299 | 11275 ft | 265 kts | 154° |
| 2026-05-07 18:07 | 46.32024 | 14.36545 | 10901 ft | 261 kts | 154° |
| 2026-05-07 18:07 | 46.30442 | 14.37772 | 10559 ft | 255 kts | 154° |
| 2026-05-07 18:07 | 46.28898 | 14.38961 | 10261 ft | 249 kts | 154° |
| 2026-05-07 18:08 | 46.27380 | 14.40132 | 9921 ft | 249 kts | 154° |
| 2026-05-07 18:08 | 46.25855 | 14.41305 | 9588 ft | 247 kts | 154° |
| 2026-05-07 18:08 | 46.24341 | 14.42470 | 9288 ft | 244 kts | 154° |
| 2026-05-07 18:08 | 46.22878 | 14.43723 | 8900 ft | 246 kts | 143° |
| 2026-05-07 18:09 | 46.21599 | 14.45351 | 8599 ft | 244 kts | 140° |
| 2026-05-07 18:09 | 46.20312 | 14.46924 | 8282 ft | 243 kts | 142° |
| 2026-05-07 18:09 | 46.19011 | 14.48495 | 7945 ft | 243 kts | 142° |
| 2026-05-07 18:09 | 46.17736 | 14.50017 | 7649 ft | 241 kts | 142° |
| 2026-05-07 18:10 | 46.16439 | 14.51553 | 7310 ft | 240 kts | 143° |
| 2026-05-07 18:10 | 46.15138 | 14.53056 | 6992 ft | 239 kts | 143° |
| 2026-05-07 18:10 | 46.13849 | 14.54554 | 6671 ft | 237 kts | 143° |
| 2026-05-07 18:10 | 46.12562 | 14.56032 | 6365 ft | 236 kts | 143° |
| 2026-05-07 18:11 | 46.11286 | 14.57505 | 6052 ft | 235 kts | 143° |
| 2026-05-07 18:11 | 46.10442 | 14.58476 | 5847 ft | 234 kts | 143° |
| 2026-05-07 18:11 | 46.08745 | 14.60429 | 5428 ft | 233 kts | 143° |
| 2026-05-07 18:11 | 46.07484 | 14.61879 | 5125 ft | 231 kts | 143° |
| 2026-05-07 18:12 | 46.06365 | 14.63526 | 4792 ft | 233 kts | 119° |
| 2026-05-07 18:12 | 46.06085 | 14.65762 | 4556 ft | 230 kts | 78° |
| 2026-05-07 18:12 | 46.06859 | 14.67703 | 4381 ft | 226 kts | 36° |
| 2026-05-07 18:12 | 46.08301 | 14.68434 | 4296 ft | 223 kts | 354° |
| 2026-05-07 18:13 | 46.09697 | 14.67629 | 4243 ft | 219 kts | 313° |
| 2026-05-07 18:13 | 46.10493 | 14.65790 | 4227 ft | 218 kts | 291° |
| 2026-05-07 18:13 | 46.11332 | 14.63946 | 3989 ft | 223 kts | 322° |
| 2026-05-07 18:13 | 46.12715 | 14.62971 | 3971 ft | 225 kts | 336° |
| 2026-05-07 18:14 | 46.14154 | 14.61966 | 3539 ft | 230 kts | 319° |
| 2026-05-07 18:14 | 46.15095 | 14.60205 | 3246 ft | 218 kts | 298° |
| 2026-05-07 18:14 | 46.15846 | 14.58404 | 3021 ft | 199 kts | 304° |
| 2026-05-07 18:14 | 46.16670 | 14.56923 | 2774 ft | 185 kts | 308° |
| 2026-05-07 18:15 | 46.17420 | 14.55483 | 2538 ft | 174 kts | 304° |
| 2026-05-07 18:15 | 46.18091 | 14.54122 | 2346 ft | 159 kts | 306° |
| 2026-05-07 18:15 | 46.18724 | 14.52900 | 2161 ft | 145 kts | 306° |
| 2026-05-07 18:15 | 46.19314 | 14.51751 | 1937 ft | 139 kts | 306° |
| 2026-05-07 18:16 | 46.19868 | 14.50665 | 1749 ft | 131 kts | 306° |
| 2026-05-07 18:16 | 46.20403 | 14.49607 | 1583 ft | 131 kts | 305° |
| 2026-05-07 18:16 | 46.20917 | 14.48557 | 1407 ft | 126 kts | 308° |
| 2026-05-07 18:16 | 46.21426 | 14.47584 | 1272 ft | 118 kts | 307° |
| 2026-05-07 18:17 | 46.21929 | 14.46604 | 1227 ft | 116 kts | 304° |
| 2026-05-07 18:17 | 46.22362 | 14.45775 | 1252 ft | 86 kts | 307° |
| 2026-05-07 18:17 | 46.22620 | 14.45386 | 1253 ft | 20 kts | 330° |
| 2026-05-07 18:17 | 46.22722 | 14.45334 | 1262 ft | 14 kts | 350° |
| 2026-05-07 18:18 | 46.22816 | 14.45315 | 1257 ft | 14 kts | 359° |
| 2026-05-07 18:18 | 46.22879 | 14.45353 | 1257 ft | 10 kts | 33° |
| 2026-05-07 18:18 | 46.22942 | 14.45395 | 1262 ft | 10 kts | 351° |
| 2026-05-07 18:18 | 46.22986 | 14.45383 | 1262 ft | 6 kts | 10° |
| 2026-05-07 18:19 | 46.23014 | 14.45407 | 1257 ft | 5 kts | 36° |
| 2026-05-07 18:19 | 46.23028 | 14.45421 | 1261 ft | 0 kts | 36° |